Kulob Airport
UTDK : now visible

Airfield :











YOU CAN JOIN US ON...

 
LOGIN :

Register | Disclaimer

   EN    FR    IT 

 









Legend :    VFR   Marginal VFR   IFR   Intensive IFR   Very Intensive IFR
Visi :
Ceiling :
>= 8 km
>= 3000ft
5 to 8 km
1000 to 3000 ft
1500m to 5 km
500 to 1000 ft
800 to 1500m
200 to 500 ft
< 800m
< 200 ft
Symbols :   Thunderstorms  Fog  Heavy snow  Heavy precipitations  Wind > 20 kt







- Airport Elevation : 2293 ft
- IATA code : TJU


UTDK - Kulob

CURRENT METAR :
  • 251000Z VRB02MPS 9999 NSC 23/06 Q1018 R01/09//70 RMK QFE706/0941

EXPIRED METARs :
  • 250930Z VRB01MPS 9999 NSC 23/06 Q1018 R01/09//70 RMK QFE706/0941
  • 250900Z VRB02MPS 9999 NSC 23/06 Q1018 R01/09//70 RMK QFE706/0941
  • 250830Z VRB02MPS 9999 NSC 22/06 Q1018 R01/09//70 RMK QFE706/0942
  • 250800Z VRB02MPS 9999 NSC 22/06 Q1018 R01/09//70 RMK QFE706/0942
  • 250730Z VRB02MPS 9999 NSC 21/04 Q1019 R01/09//70 RMK QFE706/0942

TAF TAF UTDK
Valid from the 25 at 10:00 until the 25 at 19:00 UTC


250900Z 2510/2519 VRB02MPS 9999 NSC
TEMPO 2510/2513 21005MPS
BECMG 2514/2516 03005MPS
UTDD FIR / Asia



MET'MAP, your aeronautical weather chart ! - Copyright ORBIFLY December 2007 - Disclaimer

ORBIFLY MET'MAP TEAM :

Programming & Development : Alexandra Zaïnal
Concept & Development : Baudouin d'Aumeries
Co-Development & Prog : Marc-Olivier Méhu
Technical & hardware support : Manuel Goepfert

Contact : metmap@orbifly.com




SOURCES & CREDITS :

   NOAA       Earth
Advisory